Time;durP1;ratioP1;P1;durP2;ratioP2;P2;SDS_P1;SDS_P2;PMS_P1;PMS_P2;Temp;Humidity;BMP_temperature;BMP_pressure;BME280_temperature;BME280_humidity;BME280_pressure;Samples;Min_cycle;Max_cycle;Signal;HPM_P1;HPM_P2
2022/05/29 00:02:26;;;;;;;6.60;1.80;;;10.70;99.90;;;;;;5203035;28;20184;-53
2022/05/29 00:04:56;;;;;;;14.07;2.40;;;10.80;99.90;;;;;;5199446;28;20219;-53
2022/05/29 00:07:27;;;;;;;12.00;2.50;;;10.80;99.90;;;;;;5208535;28;20179;-53
2022/05/29 00:09:57;;;;;;;10.47;2.40;;;10.80;99.90;;;;;;5205413;28;20206;-51
2022/05/29 00:12:28;;;;;;;8.67;2.10;;;10.90;99.90;;;;;;5202767;28;20229;-52
2022/05/29 00:14:58;;;;;;;11.80;3.00;;;10.80;99.90;;;;;;5201843;28;20187;-51
2022/05/29 00:17:29;;;;;;;8.13;2.40;;;10.80;99.90;;;;;;5206784;28;20663;-53
2022/05/29 00:20:00;;;;;;;6.53;2.27;;;10.80;99.90;;;;;;5205622;28;20656;-52
2022/05/29 00:22:31;;;;;;;18.43;3.77;;;10.80;99.90;;;;;;5199320;28;20179;-52
2022/05/29 00:25:06;;;;;;;9.63;2.47;;;10.80;99.90;;;;;;5202881;28;20536;-53
2022/05/29 00:27:37;;;;;;;7.33;2.57;;;10.80;99.90;;;;;;5203341;28;20481;-54
2022/05/29 00:30:11;;;;;;;6.83;2.53;;;10.70;99.90;;;;;;5197264;28;20977;-54
2022/05/29 00:32:41;;;;;;;9.30;2.43;;;10.70;99.90;;;;;;5193027;28;20176;-52
2022/05/29 00:35:12;;;;;;;15.33;2.57;;;10.60;99.90;;;;;;5200906;28;20795;-53
2022/05/29 00:37:42;;;;;;;3.13;2.03;;;10.60;99.90;;;;;;5199170;28;20182;-52
2022/05/29 00:40:31;;;;;;;7.87;2.10;;;10.60;99.90;;;;;;5206974;28;20214;-51
2022/05/29 00:43:03;;;;;;;12.93;3.20;;;10.60;99.90;;;;;;5197625;28;20279;-53
2022/05/29 00:45:49;;;;;;;8.83;2.80;;;10.60;99.90;;;;;;5202261;28;20552;-52
2022/05/29 00:48:20;;;;;;;11.90;2.10;;;10.60;99.90;;;;;;5180808;28;20534;-53
2022/05/29 00:50:54;;;;;;;7.73;2.37;;;10.60;99.90;;;;;;5199506;28;20513;-51
2022/05/29 00:53:27;;;;;;;7.53;1.73;;;10.60;99.90;;;;;;5202750;28;20430;-54
2022/05/29 00:56:05;;;;;;;11.67;2.77;;;10.50;99.90;;;;;;5199347;28;20414;-53
2022/05/29 00:58:36;;;;;;;5.80;2.40;;;10.50;99.90;;;;;;5202824;28;20984;-52
2022/05/29 01:01:06;;;;;;;5.83;1.80;;;10.50;99.90;;;;;;5206931;28;20534;-52
2022/05/29 01:03:37;;;;;;;3.70;1.93;;;10.50;99.90;;;;;;5202177;28;20978;-51
2022/05/29 01:06:07;;;;;;;4.00;1.50;;;10.50;99.90;;;;;;5205851;28;20712;-52
2022/05/29 01:08:38;;;;;;;6.37;2.10;;;10.50;99.90;;;;;;5207187;28;20203;-52
2022/05/29 01:11:30;;;;;;;11.03;2.27;;;10.50;99.90;;;;;;5205283;28;20200;-53
2022/05/29 01:14:11;;;;;;;3.53;1.50;;;10.50;99.90;;;;;;5202335;28;20266;-53
2022/05/29 01:16:51;;;;;;;4.33;1.70;;;10.50;99.90;;;;;;5190753;28;20926;-52
2022/05/29 01:19:46;;;;;;;2.70;1.47;;;10.50;99.90;;;;;;5205961;28;20437;-53
2022/05/29 01:22:34;;;;;;;14.30;2.00;;;10.50;99.90;;;;;;5200879;28;20446;-53
2022/05/29 01:25:22;;;;;;;6.80;2.47;;;10.50;99.90;;;;;;5202030;28;20459;-51
2022/05/29 01:28:11;;;;;;;10.70;3.23;;;10.40;99.90;;;;;;5196216;28;20589;-54
2022/05/29 01:31:03;;;;;;;7.80;2.57;;;10.40;99.90;;;;;;5203152;28;20455;-54
2022/05/29 01:33:48;;;;;;;3.10;2.07;;;10.30;99.90;;;;;;5203081;28;20442;-52
2022/05/29 01:36:43;;;;;;;13.07;2.70;;;10.30;99.90;;;;;;5203009;28;20775;-52
2022/05/29 01:40:08;;;;;;;5.33;1.80;;;10.30;99.90;;;;;;5198264;28;20442;-52
2022/05/29 01:42:46;;;;;;;13.83;1.97;;;10.30;99.90;;;;;;5190007;28;20452;-51
2022/05/29 01:45:53;;;;;;;3.83;2.10;;;10.30;99.90;;;;;;5205970;28;20471;-52
2022/05/29 01:48:45;;;;;;;8.00;2.17;;;10.20;99.90;;;;;;5197165;28;20938;-53
2022/05/29 01:51:25;;;;;;;9.57;2.10;;;10.20;99.90;;;;;;5198474;28;20474;-53
2022/05/29 01:54:13;;;;;;;5.80;2.23;;;10.20;99.90;;;;;;5193593;28;20439;-52
2022/05/29 01:56:50;;;;;;;15.43;2.40;;;10.10;99.90;;;;;;5204467;28;20438;-52
2022/05/29 01:59:27;;;;;;;12.03;2.20;;;10.10;99.90;;;;;;5205060;28;20409;-52
2022/05/29 02:02:03;;;;;;;3.77;1.53;;;10.10;99.90;;;;;;5205611;28;20453;-52
2022/05/29 02:04:39;;;;;;;5.70;1.93;;;10.20;99.90;;;;;;5205235;28;20461;-52
2022/05/29 02:10:09;;;;;;;3.37;1.90;;;10.30;99.90;;;;;;5200199;28;20430;-52
2022/05/29 02:12:52;;;;;;;3.60;2.10;;;10.30;99.90;;;;;;5205106;28;20488;-52
2022/05/29 02:15:38;;;;;;;2.73;1.93;;;10.30;99.90;;;;;;5196598;28;20529;-52
2022/05/29 02:18:43;;;;;;;10.17;2.40;;;10.30;99.90;;;;;;5195342;28;20435;-52
2022/05/29 02:21:31;;;;;;;6.00;1.60;;;10.40;99.90;;;;;;5190679;28;20946;-52
2022/05/29 02:24:07;;;;;;;2.83;1.90;;;10.40;99.90;;;;;;5202709;28;20461;-53
2022/05/29 02:26:45;;;;;;;3.97;1.77;;;10.30;99.90;;;;;;5199664;28;20427;-52
2022/05/29 02:29:16;;;;;;;7.80;2.73;;;10.40;99.90;;;;;;5206274;28;20422;-53
2022/05/29 02:31:49;;;;;;;4.80;1.87;;;10.40;99.90;;;;;;5205912;28;20441;-53
2022/05/29 02:34:35;;;;;;;3.20;1.63;;;10.40;99.90;;;;;;5201359;28;20611;-52
2022/05/29 02:37:21;;;;;;;9.17;1.63;;;10.40;99.90;;;;;;5199029;28;20470;-53
2022/05/29 02:40:03;;;;;;;5.20;2.67;;;10.50;99.90;;;;;;5201200;28;20444;-53
2022/05/29 02:42:42;;;;;;;4.50;2.07;;;10.50;99.90;;;;;;5199257;28;20504;-53
2022/05/29 02:45:43;;;;;;;9.00;2.17;;;10.50;99.90;;;;;;5190604;28;20827;-52
2022/05/29 02:48:33;;;;;;;3.80;1.33;;;10.50;99.90;;;;;;5190568;28;20431;-50
2022/05/29 02:51:29;;;;;;;8.03;2.13;;;10.60;99.90;;;;;;5198283;28;20451;-52
2022/05/29 02:53:59;;;;;;;4.27;2.43;;;10.60;99.90;;;;;;5203075;28;20446;-53
2022/05/29 02:56:30;;;;;;;6.57;2.17;;;10.60;99.90;;;;;;5202000;28;20439;-51
2022/05/29 02:59:00;;;;;;;3.70;1.80;;;10.60;99.90;;;;;;5205228;28;20206;-52
2022/05/29 03:01:43;;;;;;;6.37;1.47;;;10.60;99.90;;;;;;5200713;28;20590;-52
2022/05/29 03:04:47;;;;;;;9.57;1.57;;;10.60;99.90;;;;;;5194184;28;20203;-52
2022/05/29 03:07:55;;;;;;;2.30;1.60;;;10.60;99.90;;;;;;5197399;28;20518;-53
2022/05/29 03:10:35;;;;;;;6.13;1.97;;;10.60;99.90;;;;;;5203952;28;20450;-52
2022/05/29 03:13:09;;;;;;;6.73;2.13;;;10.60;99.90;;;;;;5187472;28;20654;-53
2022/05/29 03:15:59;;;;;;;8.13;1.90;;;10.60;99.90;;;;;;5203430;28;20780;-53
2022/05/29 03:18:56;;;;;;;2.00;1.87;;;10.50;99.90;;;;;;5211622;28;20513;-51
2022/05/29 03:21:39;;;;;;;7.67;1.60;;;10.50;99.90;;;;;;5198831;28;20458;-52
2022/05/29 03:24:12;;;;;;;4.33;2.00;;;10.50;99.90;;;;;;5200064;28;20451;-53
2022/05/29 03:26:55;;;;;;;9.47;2.40;;;10.60;99.90;;;;;;5202822;28;20431;-52
2022/05/29 03:29:29;;;;;;;5.80;1.97;;;10.60;99.90;;;;;;5191913;28;20418;-52
2022/05/29 03:32:01;;;;;;;3.77;2.30;;;10.70;99.90;;;;;;5193596;28;20505;-52
2022/05/29 03:34:31;;;;;;;7.00;2.50;;;10.70;99.90;;;;;;5203366;28;20528;-52
2022/05/29 03:37:02;;;;;;;5.47;2.20;;;10.70;99.90;;;;;;5195491;28;21009;-53
2022/05/29 03:39:34;;;;;;;7.03;1.97;;;10.70;99.90;;;;;;5200773;28;20588;-52
2022/05/29 03:42:05;;;;;;;9.63;2.40;;;10.70;99.90;;;;;;5195819;28;20473;-53
2022/05/29 03:44:35;;;;;;;5.03;2.10;;;10.70;99.90;;;;;;5201216;28;20557;-51
2022/05/29 03:47:06;;;;;;;4.93;2.03;;;10.70;99.90;;;;;;5202768;28;20469;-52
2022/05/29 03:49:36;;;;;;;3.07;1.87;;;10.70;99.90;;;;;;5200596;28;20192;-51
2022/05/29 03:52:07;;;;;;;6.17;2.47;;;10.70;99.90;;;;;;5187311;28;20210;-52
2022/05/29 03:54:37;;;;;;;6.37;2.00;;;10.70;99.90;;;;;;5196340;28;20553;-50
2022/05/29 03:57:08;;;;;;;2.87;1.77;;;10.70;99.90;;;;;;5200239;28;20203;-50
2022/05/29 03:59:39;;;;;;;4.70;2.30;;;10.80;99.90;;;;;;5203496;28;20256;-51
2022/05/29 04:02:09;;;;;;;1.43;1.43;;;10.70;99.90;;;;;;5199782;28;20203;-50
2022/05/29 04:04:40;;;;;;;2.67;1.90;;;10.80;99.90;;;;;;5203667;28;20473;-50
2022/05/29 04:07:11;;;;;;;3.33;2.40;;;10.80;99.90;;;;;;5193739;28;20602;-51
2022/05/29 04:12:31;;;;;;;5.50;2.10;;;11.00;99.90;;;;;;5201222;28;20194;-50
2022/05/29 04:15:01;;;;;;;3.80;2.03;;;11.00;99.90;;;;;;5200281;28;20431;-51
2022/05/29 04:17:32;;;;;;;11.90;2.60;;;11.00;99.90;;;;;;5207079;28;20194;-53
2022/05/29 04:20:02;;;;;;;3.30;1.90;;;11.10;99.90;;;;;;5207601;28;20551;-51
2022/05/29 04:22:33;;;;;;;9.37;1.97;;;11.10;99.90;;;;;;5199579;28;20753;-51
2022/05/29 04:25:04;;;;;;;7.83;2.30;;;11.20;99.90;;;;;;5204191;28;20200;-52
2022/05/29 04:27:34;;;;;;;7.83;2.20;;;11.20;99.90;;;;;;5207195;28;20636;-51
2022/05/29 04:30:06;;;;;;;4.10;1.90;;;11.30;99.90;;;;;;5206345;28;20981;-50
2022/05/29 04:35:34;;;;;;;5.10;2.10;;;11.40;99.90;;;;;;5207804;28;20409;-51
2022/05/29 04:38:05;;;;;;;2.50;1.93;;;11.40;99.90;;;;;;5205949;28;20433;-52
2022/05/29 04:40:40;;;;;;;6.83;2.00;;;11.50;99.90;;;;;;5204005;28;20470;-50
2022/05/29 04:43:12;;;;;;;1.80;1.70;;;11.60;99.90;;;;;;5202596;28;20198;-51
2022/05/29 04:45:44;;;;;;;4.93;2.23;;;11.60;99.90;;;;;;5200703;28;20435;-51
2022/05/29 04:48:16;;;;;;;6.67;2.43;;;11.70;99.90;;;;;;5202991;28;20936;-51
2022/05/29 04:50:47;;;;;;;2.80;2.23;;;11.70;99.90;;;;;;5202715;28;20430;-51
2022/05/29 04:53:17;;;;;;;17.63;2.90;;;11.70;99.90;;;;;;5197264;28;20816;-49
2022/05/29 04:55:55;;;;;;;3.77;2.33;;;11.70;99.90;;;;;;5203826;28;20196;-50
2022/05/29 04:58:27;;;;;;;5.90;2.10;;;11.70;99.90;;;;;;5206986;28;20183;-52
2022/05/29 05:01:01;;;;;;;3.07;1.70;;;11.70;99.90;;;;;;5204435;28;20466;-53
2022/05/29 05:03:31;;;;;;;6.57;2.37;;;11.70;99.90;;;;;;5204709;28;20467;-50
2022/05/29 05:06:02;;;;;;;4.20;2.20;;;11.70;99.90;;;;;;5204137;28;20565;-50
2022/05/29 05:08:33;;;;;;;4.20;2.40;;;11.70;99.90;;;;;;5207102;28;20580;-50
2022/05/29 05:11:05;;;;;;;4.67;2.00;;;11.80;99.90;;;;;;5206228;28;20541;-49
2022/05/29 05:13:36;;;;;;;4.87;2.50;;;11.90;99.90;;;;;;5206253;28;20187;-51
2022/05/29 05:16:07;;;;;;;2.30;1.70;;;12.00;99.90;;;;;;5207324;28;20453;-51
2022/05/29 05:18:37;;;;;;;6.53;2.50;;;12.00;99.90;;;;;;5202507;28;20184;-50
2022/05/29 05:21:08;;;;;;;9.87;1.93;;;12.00;99.90;;;;;;5202981;28;20911;-51
2022/05/29 05:23:40;;;;;;;5.97;2.70;;;12.00;99.90;;;;;;5195215;28;20277;-52
2022/05/29 05:26:13;;;;;;;5.10;2.13;;;11.90;99.90;;;;;;5206096;28;20534;-50
2022/05/29 05:28:43;;;;;;;10.10;2.97;;;11.90;99.90;;;;;;5205647;28;20431;-51
2022/05/29 05:31:14;;;;;;;10.73;2.60;;;11.90;99.90;;;;;;5202375;28;20458;-51
2022/05/29 05:33:45;;;;;;;7.77;1.97;;;11.90;99.90;;;;;;5193580;28;20259;-51
2022/05/29 05:36:15;;;;;;;15.10;3.13;;;11.90;99.90;;;;;;5202176;28;20204;-52
2022/05/29 05:38:46;;;;;;;8.00;2.30;;;11.90;99.90;;;;;;5202819;28;20188;-53
2022/05/29 05:41:17;;;;;;;4.03;2.17;;;11.80;99.90;;;;;;5190022;28;20708;-52
2022/05/29 05:43:47;;;;;;;9.73;1.97;;;11.60;99.90;;;;;;5195295;28;20495;-53
2022/05/29 05:46:19;;;;;;;7.87;2.40;;;11.60;99.90;;;;;;5201052;28;20184;-53
2022/05/29 05:48:49;;;;;;;3.60;2.03;;;11.70;99.90;;;;;;5204139;28;20551;-53
2022/05/29 05:51:20;;;;;;;5.23;2.30;;;11.80;99.90;;;;;;5199135;28;20447;-53
2022/05/29 05:53:50;;;;;;;15.13;2.57;;;11.90;99.90;;;;;;5206296;28;20176;-54
2022/05/29 05:56:21;;;;;;;10.60;2.50;;;12.10;99.90;;;;;;5198335;28;20218;-53
2022/05/29 05:58:51;;;;;;;7.63;2.33;;;12.10;99.90;;;;;;5205256;28;20207;-53
2022/05/29 06:01:22;;;;;;;10.50;3.00;;;12.10;99.90;;;;;;5194482;28;20208;-54
2022/05/29 06:03:52;;;;;;;4.60;2.70;;;12.10;99.90;;;;;;5196710;28;20334;-52
2022/05/29 06:06:23;;;;;;;10.07;2.83;;;12.20;99.90;;;;;;5204370;28;20183;-53
2022/05/29 06:08:55;;;;;;;7.40;1.93;;;12.20;99.90;;;;;;5205716;28;20705;-53
2022/05/29 06:11:27;;;;;;;6.43;2.57;;;12.20;99.90;;;;;;5195086;28;20278;-53
2022/05/29 06:13:57;;;;;;;4.00;1.90;;;12.20;99.90;;;;;;5204871;28;20436;-53
2022/05/29 06:16:28;;;;;;;7.80;2.77;;;12.30;99.90;;;;;;5201608;28;20525;-54
2022/05/29 06:18:58;;;;;;;3.27;2.27;;;12.30;99.90;;;;;;5204877;28;20188;-53
2022/05/29 06:21:29;;;;;;;4.53;1.90;;;12.50;99.90;;;;;;5201308;28;20711;-53
2022/05/29 06:23:59;;;;;;;5.80;2.93;;;12.60;99.90;;;;;;5205835;28;20195;-52
2022/05/29 06:26:30;;;;;;;11.67;2.90;;;12.70;99.90;;;;;;5200589;28;20659;-52
2022/05/29 06:29:01;;;;;;;4.60;1.97;;;12.70;99.90;;;;;;5198416;28;20179;-52
2022/05/29 06:31:31;;;;;;;6.33;2.10;;;12.70;99.90;;;;;;5204245;28;20224;-53
2022/05/29 06:34:02;;;;;;;3.13;2.07;;;12.70;99.90;;;;;;5191810;28;20504;-52
2022/05/29 06:36:32;;;;;;;2.73;2.00;;;12.70;99.90;;;;;;5200782;28;20498;-53
2022/05/29 06:39:03;;;;;;;8.80;2.53;;;12.60;99.90;;;;;;5198612;28;20184;-53
2022/05/29 06:41:34;;;;;;;12.30;2.60;;;12.60;99.90;;;;;;5206211;28;20337;-53
2022/05/29 06:44:06;;;;;;;4.77;2.20;;;12.60;99.90;;;;;;5204571;28;20739;-54
2022/05/29 06:46:36;;;;;;;4.30;2.20;;;12.70;99.90;;;;;;5203864;28;20438;-53
2022/05/29 06:49:07;;;;;;;6.37;2.53;;;12.80;99.90;;;;;;5204957;28;20430;-53
2022/05/29 06:51:38;;;;;;;4.30;2.30;;;12.90;99.90;;;;;;5200597;28;20200;-53
2022/05/29 06:54:09;;;;;;;11.10;3.00;;;13.00;99.90;;;;;;5203290;28;20410;-53
2022/05/29 06:56:39;;;;;;;11.10;2.20;;;13.40;99.90;;;;;;5205580;28;20180;-54
2022/05/29 06:59:10;;;;;;;3.80;2.27;;;13.70;99.90;;;;;;5204978;28;20218;-52
2022/05/29 07:07:19;;;;;;;8.47;2.60;;;14.60;99.90;;;;;;5195480;28;20490;-53
2022/05/29 07:09:50;;;;;;;7.20;2.30;;;15.10;99.90;;;;;;5203865;28;20431;-53
2022/05/29 07:12:26;;;;;;;4.00;2.53;;;15.20;99.90;;;;;;5203114;28;20171;-52
2022/05/29 07:15:01;;;;;;;6.43;1.87;;;15.00;99.90;;;;;;5204917;28;20183;-53
2022/05/29 07:17:32;;;;;;;4.00;1.80;;;15.00;99.90;;;;;;5203994;28;20441;-53
2022/05/29 07:20:04;;;;;;;4.07;1.90;;;15.00;99.90;;;;;;5195876;28;20938;-53
2022/05/29 07:22:35;;;;;;;2.43;2.13;;;15.10;99.90;;;;;;5186644;28;20274;-53
2022/05/29 07:25:06;;;;;;;3.30;1.90;;;15.00;99.90;;;;;;5200304;28;20550;-53
2022/05/29 07:27:38;;;;;;;5.93;2.30;;;15.00;99.90;;;;;;5200364;28;20191;-54
2022/05/29 07:30:09;;;;;;;3.90;1.90;;;15.00;99.30;;;;;;5197334;28;20470;-53
2022/05/29 07:32:40;;;;;;;3.50;2.00;;;14.80;99.20;;;;;;5204162;28;20504;-53
2022/05/29 07:35:10;;;;;;;5.87;2.10;;;14.40;99.90;;;;;;5189180;28;20438;-53
2022/05/29 07:37:41;;;;;;;5.57;2.53;;;14.20;99.90;;;;;;5197950;28;20215;-53
2022/05/29 07:40:12;;;;;;;4.87;2.33;;;13.90;99.90;;;;;;5204560;28;20215;-53
2022/05/29 07:45:31;;;;;;;7.53;2.30;;;13.40;99.90;;;;;;5190693;28;21210;-53
2022/05/29 07:48:02;;;;;;;15.20;2.70;;;13.40;99.90;;;;;;5205330;28;20414;-53
2022/05/29 07:50:33;;;;;;;4.73;1.80;;;13.60;99.90;;;;;;5199234;28;20231;-52
2022/05/29 07:53:03;;;;;;;4.90;2.03;;;13.80;99.90;;;;;;5206541;28;20265;-53
2022/05/29 07:55:37;;;;;;;9.63;2.00;;;14.10;99.90;;;;;;5207396;28;20728;-53
2022/05/29 07:58:07;;;;;;;1.70;1.37;;;14.80;99.90;;;;;;5205981;28;20184;-54
2022/05/29 08:00:39;;;;;;;5.93;1.93;;;15.80;97.10;;;;;;5205372;28;20455;-53
2022/05/29 08:03:10;;;;;;;3.00;1.83;;;17.00;92.00;;;;;;5207259;28;20245;-54
2022/05/29 08:05:41;;;;;;;1.77;1.67;;;18.10;82.80;;;;;;5197466;28;20435;-54
2022/05/29 08:08:13;;;;;;;2.63;1.67;;;18.20;73.80;;;;;;5206355;28;20184;-54
2022/05/29 08:10:44;;;;;;;8.87;2.63;;;18.20;74.40;;;;;;5199679;28;20718;-54
2022/05/29 08:13:15;;;;;;;5.00;1.97;;;17.70;75.30;;;;;;5204400;28;20435;-52
2022/05/29 08:15:45;;;;;;;5.40;1.77;;;17.00;80.90;;;;;;5207851;28;20501;-53
2022/05/29 08:18:16;;;;;;;7.10;2.40;;;16.50;86.70;;;;;;5199947;28;20659;-54
2022/05/29 08:20:47;;;;;;;3.70;1.80;;;16.10;92.00;;;;;;5206816;28;20270;-54
2022/05/29 08:23:18;;;;;;;6.37;2.03;;;16.40;94.90;;;;;;5207159;28;20615;-53
2022/05/29 08:30:37;;;;;;;3.17;1.90;;;18.10;90.80;;;;;;5208655;28;20580;-52
2022/05/29 08:31:32;;;;;;;4.63;1.80;;;18.20;85.60;;;;;;5197529;28;20470;-53
2022/05/29 08:34:02;;;;;;;2.87;1.70;;;18.00;80.50;;;;;;5202489;28;20876;-53
2022/05/29 08:36:33;;;;;;;7.83;1.80;;;17.60;82.40;;;;;;5204807;28;20211;-56
2022/05/29 08:39:03;;;;;;;2.93;1.73;;;17.00;79.20;;;;;;5208830;28;20697;-54
2022/05/29 08:41:44;;;;;;;5.03;1.50;;;16.70;83.20;;;;;;5202444;28;20211;-53
2022/05/29 08:44:40;;;;;;;3.00;1.90;;;16.40;78.80;;;;;;5201871;28;20217;-54
2022/05/29 08:47:11;;;;;;;1.90;1.37;;;16.50;80.10;;;;;;5199098;28;20434;-53
2022/05/29 08:49:46;;;;;;;6.23;1.90;;;17.00;79.60;;;;;;5203680;28;20788;-54
2022/05/29 08:52:51;;;;;;;1.50;1.40;;;17.80;78.50;;;;;;5191635;28;20435;-53
2022/05/29 08:55:29;;;;;;;2.20;1.70;;;18.70;71.10;;;;;;5202855;28;20607;-55
2022/05/29 08:58:13;;;;;;;3.80;1.97;;;19.20;65.20;;;;;;5199482;28;20454;-54
2022/05/29 09:01:34;;;;;;;1.93;1.37;;;19.40;62.70;;;;;;5204530;28;20463;-54
2022/05/29 09:04:13;;;;;;;4.30;1.80;;;19.70;58.90;;;;;;5174175;28;20494;-54
2022/05/29 09:06:49;;;;;;;5.07;1.57;;;19.80;55.90;;;;;;5203681;28;20427;-54
2022/05/29 09:09:33;;;;;;;1.20;1.10;;;19.70;56.70;;;;;;5201065;28;20456;-54
2022/05/29 09:12:10;;;;;;;2.77;1.10;;;20.20;55.40;;;;;;5197023;28;20462;-54
2022/05/29 09:14:49;;;;;;;5.10;1.70;;;20.10;53.40;;;;;;5206052;28;20441;-54
2022/05/29 09:17:37;;;;;;;4.10;1.43;;;19.50;53.10;;;;;;5192389;28;20832;-54
2022/05/29 09:20:34;;;;;;;4.43;2.10;;;18.60;55.80;;;;;;5197042;28;20454;-54
2022/05/29 09:23:07;;;;;;;4.00;1.93;;;17.30;63.90;;;;;;5199726;28;20457;-54
2022/05/29 09:25:42;;;;;;;2.13;1.70;;;16.40;70.50;;;;;;5196878;28;20553;-55
2022/05/29 09:28:25;;;;;;;2.70;1.93;;;15.70;78.00;;;;;;5202231;28;20955;-55
2022/05/29 09:31:07;;;;;;;2.97;1.50;;;15.30;87.90;;;;;;5204151;28;20485;-53
2022/05/29 09:33:38;;;;;;;4.67;2.03;;;14.90;94.10;;;;;;5203796;28;20426;-54
2022/05/29 09:36:18;;;;;;;2.70;1.57;;;15.00;98.10;;;;;;5197344;28;20844;-54
2022/05/29 09:38:56;;;;;;;4.27;1.90;;;14.80;99.90;;;;;;5197235;28;20438;-53
2022/05/29 09:41:39;;;;;;;6.23;2.20;;;15.00;99.90;;;;;;5205888;28;20469;-53
2022/05/29 09:44:15;;;;;;;7.23;1.97;;;15.50;99.90;;;;;;5204782;28;20511;-53
2022/05/29 09:46:48;;;;;;;2.43;1.70;;;16.50;98.50;;;;;;5202586;28;20954;-54
2022/05/29 09:49:41;;;;;;;1.50;1.40;;;17.10;92.20;;;;;;5201430;28;20450;-53
2022/05/29 09:52:18;;;;;;;1.57;1.47;;;17.40;75.10;;;;;;5200831;28;20541;-53
2022/05/29 09:54:56;;;;;;;2.30;1.80;;;17.30;71.20;;;;;;5202576;28;20501;-54
2022/05/29 09:57:49;;;;;;;5.13;2.27;;;17.80;71.20;;;;;;5206194;28;20434;-53
2022/05/29 10:00:35;;;;;;;2.20;1.70;;;17.50;70.30;;;;;;5198248;28;20450;-53
2022/05/29 10:03:09;;;;;;;1.83;1.73;;;17.10;71.30;;;;;;5192196;28;20415;-55
2022/05/29 10:05:41;;;;;;;10.83;2.93;;;16.40;78.80;;;;;;5204879;28;20552;-53
2022/05/29 10:08:28;;;;;;;1.97;1.47;;;15.70;86.40;;;;;;5204915;28;20947;-52
2022/05/29 10:11:37;;;;;;;4.97;1.63;;;15.00;90.50;;;;;;5200086;28;20462;-53
2022/05/29 10:14:38;;;;;;;3.63;1.93;;;14.60;95.20;;;;;;5203797;28;20440;-53
2022/05/29 10:17:15;;;;;;;2.47;1.70;;;14.40;99.90;;;;;;5193143;28;20438;-53
2022/05/29 10:19:47;;;;;;;5.50;3.10;;;14.40;99.90;;;;;;5197143;28;20431;-52
2022/05/29 10:22:30;;;;;;;13.30;6.27;;;14.50;99.90;;;;;;5204211;28;20484;-54
2022/05/29 10:25:13;;;;;;;3.73;2.90;;;14.60;99.90;;;;;;5202503;28;20462;-52
2022/05/29 10:27:46;;;;;;;5.50;2.70;;;15.10;99.90;;;;;;5204414;28;20418;-53
2022/05/29 10:30:50;;;;;;;5.43;2.30;;;15.50;99.90;;;;;;5202993;28;20477;-55
2022/05/29 10:33:30;;;;;;;1.60;1.27;;;16.00;98.60;;;;;;5193279;28;20509;-53
2022/05/29 10:36:08;;;;;;;2.63;1.80;;;16.30;95.60;;;;;;5194092;28;20429;-55
2022/05/29 10:38:40;;;;;;;1.37;1.27;;;16.60;95.00;;;;;;5210139;28;20937;-55
2022/05/29 10:41:11;;;;;;;1.77;1.67;;;17.20;92.70;;;;;;5203084;28;20469;-53
2022/05/29 10:43:45;;;;;;;2.20;1.37;;;17.10;90.70;;;;;;5200676;28;20942;-54
2022/05/29 10:46:21;;;;;;;1.47;0.97;;;17.40;79.00;;;;;;5203224;28;20431;-55
2022/05/29 10:49:05;;;;;;;0.80;0.73;;;17.40;74.50;;;;;;5204015;28;20434;-54
2022/05/29 10:52:07;;;;;;;1.47;0.97;;;17.50;68.30;;;;;;5199831;28;20445;-54
2022/05/29 10:54:50;;;;;;;2.50;1.30;;;17.80;65.30;;;;;;5187747;28;21029;-54
2022/05/29 10:57:39;;;;;;;1.50;1.43;;;17.60;65.00;;;;;;5195714;28;20406;-53
2022/05/29 11:00:31;;;;;;;0.70;0.70;;;17.50;66.10;;;;;;5203458;28;20533;-54
2022/05/29 11:03:33;;;;;;;1.33;1.33;;;17.80;68.00;;;;;;5201810;28;20442;-54
2022/05/29 11:06:21;;;;;;;4.03;1.53;;;17.90;66.20;;;;;;5204086;28;20438;-54
2022/05/29 11:08:59;;;;;;;4.37;1.37;;;17.80;64.00;;;;;;5198566;28;20480;-54
2022/05/29 11:11:51;;;;;;;1.67;1.20;;;17.80;64.50;;;;;;5197871;28;20446;-54
2022/05/29 11:14:42;;;;;;;2.13;1.10;;;18.00;61.40;;;;;;5198374;28;20426;-55
2022/05/29 11:17:41;;;;;;;1.20;1.10;;;18.00;59.60;;;;;;5194853;28;20431;-54
2022/05/29 11:20:27;;;;;;;1.27;0.73;;;18.10;56.80;;;;;;5188590;28;20939;-54
2022/05/29 11:23:59;;;;;;;1.13;1.13;;;18.10;56.90;;;;;;5209350;28;20461;-54
2022/05/29 11:26:45;;;;;;;5.80;3.60;;;18.40;57.00;;;;;;5208107;28;20441;-54
2022/05/29 11:29:39;;;;;;;3.53;1.70;;;18.80;56.00;;;;;;5208532;28;20836;-55
2022/05/29 11:32:22;;;;;;;6.90;2.70;;;19.10;55.20;;;;;;5203484;28;21003;-54
2022/05/29 11:35:06;;;;;;;6.20;4.20;;;19.00;55.80;;;;;;5205639;28;20452;-55
2022/05/29 11:38:00;;;;;;;1.27;1.20;;;18.60;57.40;;;;;;5207193;28;20430;-53
2022/05/29 11:40:44;;;;;;;3.43;1.63;;;18.30;57.70;;;;;;5218098;23;20494;-56
2022/05/29 11:43:26;;;;;;;2.00;1.90;;;17.30;60.90;;;;;;5218423;28;20430;-56
2022/05/29 11:52:17;;;;;;;1.37;1.27;;;16.20;83.40;;;;;;5219888;28;20456;-56
2022/05/29 11:55:03;;;;;;;3.60;1.77;;;16.00;90.80;;;;;;5224774;28;20416;-57
2022/05/29 11:57:49;;;;;;;4.00;2.23;;;16.00;91.40;;;;;;5225271;28;20416;-57
2022/05/29 12:00:28;;;;;;;7.97;5.87;;;16.10;92.80;;;;;;5220077;28;20447;-55
2022/05/29 12:03:08;;;;;;;1.60;1.50;;;16.10;90.10;;;;;;5217626;28;20469;-54
2022/05/29 12:06:00;;;;;;;1.83;1.70;;;16.20;91.30;;;;;;5216876;28;20476;-54
2022/05/29 12:08:58;;;;;;;2.73;1.33;;;16.00;89.30;;;;;;5226531;28;20499;-54
2022/05/29 12:11:44;;;;;;;3.50;1.27;;;16.20;89.90;;;;;;5235034;28;20453;-54
2022/05/29 12:14:37;;;;;;;2.33;1.73;;;16.40;88.00;;;;;;5219174;28;20441;-57
2022/05/29 12:17:36;;;;;;;1.93;1.40;;;16.50;80.90;;;;;;5219887;28;20429;-55
2022/05/29 12:20:19;;;;;;;2.77;1.60;;;16.80;80.90;;;;;;5215015;28;20486;-55
2022/05/29 12:22:56;;;;;;;4.30;1.80;;;17.30;73.90;;;;;;5221345;28;20814;-55
2022/05/29 12:25:42;;;;;;;4.43;1.87;;;17.90;69.00;;;;;;5219174;28;20461;-56
2022/05/29 12:28:24;;;;;;;1.60;1.50;;;18.20;65.90;;;;;;5221745;28;20413;-54
2022/05/29 12:30:56;;;;;;;7.07;5.13;;;18.80;59.80;;;;;;5229489;28;20499;-56
2022/05/29 12:33:27;;;;;;;4.47;3.60;;;19.00;58.70;;;;;;5228124;28;20405;-56
2022/05/29 12:36:07;;;;;;;2.77;2.00;;;18.90;57.70;;;;;;5228224;28;20432;-55
2022/05/29 12:38:57;;;;;;;1.93;1.47;;;18.90;57.20;;;;;;5220291;28;20508;-54
2022/05/29 12:41:56;;;;;;;4.83;1.50;;;18.80;56.40;;;;;;5210345;28;20828;-54
2022/05/29 12:44:35;;;;;;;1.70;1.60;;;18.80;57.40;;;;;;5227720;28;20515;-55
2022/05/29 12:47:41;;;;;;;5.13;2.10;;;18.50;57.80;;;;;;5223069;28;20437;-55
2022/05/29 12:50:39;;;;;;;8.17;2.27;;;17.60;59.00;;;;;;5218036;28;20452;-53
2022/05/29 12:53:21;;;;;;;2.97;1.93;;;16.90;61.40;;;;;;5229292;28;20432;-56
2022/05/29 12:56:31;;;;;;;3.73;2.47;;;16.80;62.90;;;;;;5222581;28;20422;-56
2022/05/29 12:59:07;;;;;;;13.30;4.70;;;16.60;64.50;;;;;;5214642;28;20442;-54
2022/05/29 13:02:05;;;;;;;12.33;7.10;;;16.90;65.00;;;;;;5227392;28;20767;-55
2022/05/29 13:04:57;;;;;;;10.27;7.37;;;17.30;65.60;;;;;;5232215;28;20484;-55
2022/05/29 13:07:54;;;;;;;11.53;6.03;;;17.40;64.00;;;;;;5228127;28;20465;-53
2022/05/29 13:10:31;;;;;;;15.23;5.43;;;17.20;64.10;;;;;;5217059;28;20452;-55
2022/05/29 13:13:19;;;;;;;3.77;2.57;;;16.80;64.10;;;;;;5221585;28;20416;-55
2022/05/29 13:15:50;;;;;;;1.90;1.10;;;16.60;66.20;;;;;;5218459;28;20429;-55
2022/05/29 13:21:17;;;;;;;1.90;1.63;;;16.10;67.90;;;;;;5229481;28;20459;-56
2022/05/29 13:23:54;;;;;;;5.07;2.37;;;16.00;69.60;;;;;;5228688;28;20515;-54
2022/05/29 13:26:28;;;;;;;5.10;1.80;;;15.50;71.90;;;;;;5229719;28;20487;-54
2022/05/29 13:29:04;;;;;;;6.10;1.83;;;15.20;73.90;;;;;;5225896;28;20433;-55
2022/05/29 13:32:16;;;;;;;3.10;2.90;;;15.00;76.80;;;;;;5227084;28;20565;-55
2022/05/29 13:35:03;;;;;;;2.30;2.10;;;15.00;76.10;;;;;;5229285;28;20452;-54
2022/05/29 13:37:49;;;;;;;1.10;1.00;;;15.10;75.00;;;;;;5228390;28;20918;-54
2022/05/29 13:40:33;;;;;;;1.53;1.37;;;15.10;73.90;;;;;;5217722;28;20421;-55
2022/05/29 13:43:14;;;;;;;1.90;1.13;;;15.50;74.60;;;;;;5227871;28;20776;-54
2022/05/29 13:45:45;;;;;;;2.27;1.80;;;15.70;72.80;;;;;;5228922;28;20484;-54
2022/05/29 13:48:22;;;;;;;2.63;1.83;;;16.10;70.90;;;;;;5211760;28;20414;-54
2022/05/29 13:51:11;;;;;;;1.37;1.37;;;16.40;71.10;;;;;;5222365;28;20455;-54
2022/05/29 13:54:00;;;;;;;0.90;0.90;;;16.70;71.90;;;;;;5221909;28;20440;-54
2022/05/29 13:56:59;;;;;;;3.17;1.50;;;16.90;73.40;;;;;;5217082;28;20444;-54
2022/05/29 14:05:34;;;;;;;4.27;2.03;;;16.90;83.70;;;;;;5220860;28;21084;-54
2022/05/29 14:08:17;;;;;;;1.73;1.63;;;16.60;87.90;;;;;;5226057;28;20440;-54
2022/05/29 14:10:56;;;;;;;0.90;0.87;;;16.70;90.70;;;;;;5226712;28;20447;-54
2022/05/29 14:13:36;;;;;;;4.93;2.47;;;16.90;88.90;;;;;;5224968;28;20517;-54
2022/05/29 14:16:24;;;;;;;3.13;1.47;;;17.40;84.60;;;;;;5227106;28;20562;-55
2022/05/29 14:19:19;;;;;;;1.60;1.37;;;17.60;83.80;;;;;;5224531;28;20427;-55
2022/05/29 14:22:12;;;;;;;2.30;0.93;;;17.70;77.40;;;;;;5225998;28;20449;-54